createdAt,value
2018-06-10T00:00:30.565Z,88.15
2018-06-10T00:02:58.013Z,88.63
2018-06-10T00:05:25.557Z,87.90
2018-06-10T00:07:52.954Z,88.18
2018-06-10T00:10:20.321Z,87.87
2018-06-10T00:12:47.765Z,88.26
2018-06-10T00:15:15.900Z,87.95
2018-06-10T00:17:43.262Z,87.38
2018-06-10T00:20:10.693Z,87.17
2018-06-10T00:22:38.123Z,87.51
2018-06-10T00:25:06.031Z,88.06
2018-06-10T00:27:34.256Z,88.64
2018-06-10T00:30:01.676Z,89.05
2018-06-10T00:32:29.037Z,88.68
2018-06-10T00:34:56.543Z,89.47
2018-06-10T00:37:23.996Z,89.70
2018-06-10T00:39:51.610Z,89.76
2018-06-10T00:42:19.330Z,89.33
2018-06-10T00:44:46.831Z,90.30
2018-06-10T00:47:14.192Z,89.66
2018-06-10T00:49:41.820Z,89.06
2018-06-10T00:52:09.345Z,89.25
2018-06-10T00:54:37.202Z,89.50
2018-06-10T00:57:04.612Z,89.57
2018-06-10T00:59:32.133Z,89.78
2018-06-10T01:01:59.761Z,90.46
2018-06-10T01:04:27.191Z,89.45
2018-06-10T01:06:54.586Z,88.12
2018-06-10T01:09:22.197Z,88.38
2018-06-10T01:11:49.745Z,90.01
2018-06-10T01:14:17.165Z,89.88
2018-06-10T01:16:44.602Z,88.97
2018-06-10T01:19:12.079Z,89.05
2018-06-10T01:21:39.592Z,88.38
2018-06-10T01:24:06.977Z,89.26
2018-06-10T01:26:40.039Z,88.53
2018-06-10T01:29:07.457Z,89.23
2018-06-10T01:31:34.874Z,88.07
2018-06-10T01:34:02.361Z,89.43
2018-06-10T01:36:29.765Z,89.46
2018-06-10T01:38:57.309Z,89.11
2018-06-10T01:41:24.664Z,89.79
2018-06-10T01:43:52.082Z,89.90
2018-06-10T01:46:19.529Z,89.94
2018-06-10T01:48:46.979Z,89.50
2018-06-10T01:51:14.532Z,89.65
2018-06-10T01:53:42.039Z,89.75
2018-06-10T01:56:09.445Z,89.97
2018-06-10T01:58:36.899Z,89.55
2018-06-10T02:01:04.295Z,89.21
2018-06-10T02:03:31.693Z,89.94
2018-06-10T02:05:59.135Z,89.42
2018-06-10T02:08:26.517Z,89.14
2018-06-10T02:10:53.971Z,89.19
2018-06-10T02:13:21.342Z,88.65
2018-06-10T02:15:48.778Z,87.66
2018-06-10T02:18:16.211Z,89.23
2018-06-10T02:20:44.206Z,89.21
2018-06-10T02:23:11.578Z,89.16
2018-06-10T02:25:38.933Z,89.12
2018-06-10T02:28:06.352Z,89.76
2018-06-10T02:30:33.736Z,88.37
2018-06-10T02:33:02.075Z,88.58
2018-06-10T02:35:29.571Z,88.44
2018-06-10T02:37:57.109Z,89.09
2018-06-10T02:40:24.475Z,89.52
2018-06-10T02:42:51.990Z,88.42
2018-06-10T02:45:19.386Z,89.42
2018-06-10T02:47:46.752Z,88.65
2018-06-10T02:50:14.169Z,89.13
2018-06-10T02:52:42.356Z,89.07
2018-06-10T02:55:10.596Z,89.31
2018-06-10T02:57:37.993Z,90.21
2018-06-10T03:00:05.604Z,90.33
2018-06-10T03:02:33.013Z,90.00
2018-06-10T03:05:00.433Z,89.90
2018-06-10T03:07:27.998Z,89.77
2018-06-10T03:09:55.365Z,89.71
2018-06-10T03:12:22.815Z,89.74
2018-06-10T03:14:50.183Z,89.84
2018-06-10T03:17:17.604Z,89.78
2018-06-10T03:19:45.007Z,89.98
2018-06-10T03:22:13.039Z,89.75
2018-06-10T03:24:40.573Z,89.72
2018-06-10T03:27:07.992Z,89.89
2018-06-10T03:29:35.386Z,90.20
2018-06-10T03:32:02.833Z,90.37
2018-06-10T03:34:30.213Z,89.68
2018-06-10T03:36:57.614Z,89.06
2018-06-10T03:39:25.045Z,88.38
2018-06-10T03:41:52.426Z,88.86
2018-06-10T03:44:19.944Z,88.67
2018-06-10T03:46:47.305Z,88.38
2018-06-10T03:49:14.769Z,89.43
2018-06-10T03:51:42.173Z,89.16
2018-06-10T03:54:09.561Z,88.66
2018-06-10T03:56:36.931Z,89.00
2018-06-10T03:59:05.092Z,87.98
2018-06-10T04:01:32.484Z,88.55
2018-06-10T04:04:00.065Z,87.80
2018-06-10T04:06:27.425Z,87.77
2018-06-10T04:08:54.901Z,88.06
2018-06-10T04:11:22.279Z,88.25
2018-06-10T04:13:49.643Z,88.14
2018-06-10T04:16:17.089Z,88.16
2018-06-10T04:18:45.151Z,87.40
2018-06-10T04:21:12.564Z,87.32
2018-06-10T04:23:40.114Z,87.79
2018-06-10T04:26:07.534Z,86.80
2018-06-10T04:28:35.018Z,87.09
2018-06-10T04:31:02.407Z,87.58
2018-06-10T04:33:29.775Z,87.38
2018-06-10T04:35:57.166Z,86.65
2018-06-10T04:38:24.514Z,86.74
2018-06-10T04:40:52.020Z,86.17
2018-06-10T04:43:19.384Z,86.27
2018-06-10T04:45:46.870Z,86.64
2018-06-10T04:48:14.266Z,86.58
2018-06-10T04:50:41.717Z,85.99
2018-06-10T17:41:39.804Z,67.70
2018-06-10T17:44:07.509Z,67.14
2018-06-10T17:46:34.965Z,66.97
2018-06-10T17:49:02.417Z,67.55
2018-06-10T17:51:29.843Z,66.44
2018-06-10T17:53:57.366Z,66.89
2018-06-10T17:56:24.777Z,66.89
2018-06-10T17:58:52.281Z,67.59
2018-06-10T18:01:19.730Z,67.56
2018-06-10T18:03:47.205Z,67.26
2018-06-10T18:06:14.816Z,67.10
2018-06-10T18:08:42.825Z,66.76
2018-06-10T18:11:10.320Z,67.63
2018-06-10T18:13:37.944Z,67.23
2018-06-10T18:16:06.380Z,67.28
2018-06-10T18:18:33.818Z,67.55
2018-06-10T18:21:01.889Z,67.35
2018-06-10T18:23:29.343Z,67.31
2018-06-10T18:25:56.917Z,67.75
2018-06-10T18:28:24.391Z,68.76
2018-06-10T18:30:51.853Z,67.42
2018-06-10T18:33:19.344Z,67.68
2018-06-10T18:35:46.848Z,68.10
2018-06-10T18:38:14.292Z,68.77
2018-06-10T18:40:41.868Z,68.71
2018-06-10T18:43:09.898Z,69.02
2018-06-10T18:45:37.309Z,68.12
2018-06-10T18:48:05.055Z,68.40
2018-06-10T18:50:32.535Z,68.63
2018-06-10T18:53:00.191Z,68.88
2018-06-10T18:55:27.636Z,69.00
2018-06-10T18:57:56.419Z,68.29
2018-06-10T19:00:23.861Z,68.58
2018-06-10T19:02:51.354Z,69.23
2018-06-10T19:05:18.824Z,69.68
2018-06-10T19:07:46.396Z,68.99
2018-06-10T19:10:13.950Z,70.61
2018-06-10T19:12:41.630Z,70.32
2018-06-10T19:15:09.659Z,68.82
2018-06-10T19:17:37.056Z,69.56
2018-06-10T19:20:04.748Z,69.98
2018-06-10T19:22:32.299Z,70.30
2018-06-10T19:24:59.763Z,71.29
2018-06-10T19:27:27.844Z,70.71
2018-06-10T19:29:55.394Z,70.86
2018-06-10T19:32:22.936Z,70.52
2018-06-10T19:34:50.387Z,71.00
2018-06-10T19:37:17.950Z,71.64
2018-06-10T19:39:45.467Z,71.77
2018-06-10T19:42:13.003Z,71.92
2018-06-10T19:44:40.982Z,71.42
2018-06-10T19:47:08.501Z,71.88
2018-06-10T19:49:35.977Z,71.72
2018-06-10T19:52:03.470Z,71.85
2018-06-10T19:54:30.960Z,72.23
2018-06-10T19:56:58.518Z,72.30
2018-06-10T19:59:26.222Z,73.44
2018-06-10T20:01:53.646Z,73.50
2018-06-10T20:04:21.040Z,73.16
2018-06-10T20:06:48.558Z,73.45
2018-06-10T20:09:16.115Z,72.81
2018-06-10T20:11:43.568Z,73.66
2018-06-10T20:14:11.065Z,73.81
2018-06-10T20:16:38.522Z,72.96
2018-06-10T20:19:05.969Z,73.83
2018-06-10T20:21:33.603Z,73.95
2018-06-10T20:24:01.880Z,74.10
2018-06-10T20:26:29.369Z,74.47
2018-06-10T20:28:56.824Z,74.37
2018-06-10T20:31:24.287Z,73.74
2018-06-10T20:33:51.889Z,73.63
2018-06-10T20:36:20.039Z,74.92
2018-06-10T20:38:47.467Z,74.12
2018-06-10T20:41:14.993Z,73.97
2018-06-10T20:43:42.578Z,74.72
2018-06-10T20:46:10.162Z,73.72
2018-06-10T20:48:37.741Z,73.62
2018-06-10T20:51:05.144Z,73.74
2018-06-10T20:53:32.667Z,74.76
2018-06-10T20:56:00.279Z,75.47
2018-06-10T20:58:27.741Z,76.21
2018-06-10T21:00:55.290Z,75.67
2018-06-10T21:03:22.734Z,76.26
2018-06-10T21:05:50.307Z,74.63
2018-06-10T21:08:17.838Z,75.86
2018-06-10T21:10:45.308Z,76.81
2018-06-10T21:13:12.768Z,75.98
2018-06-10T21:15:40.261Z,75.99
2018-06-10T21:18:07.697Z,76.55
2018-06-10T21:20:35.179Z,76.98
2018-06-10T21:23:02.690Z,76.18
2018-06-10T21:25:30.337Z,76.30
2018-06-10T21:27:57.751Z,77.62
2018-06-10T21:30:25.219Z,76.29
2018-06-10T21:32:52.711Z,76.62
2018-06-10T21:35:20.122Z,77.18
2018-06-10T21:37:47.730Z,77.86
2018-06-10T21:40:15.358Z,77.25
2018-06-10T21:42:42.859Z,78.09
2018-06-10T21:45:10.916Z,77.83
2018-06-10T21:47:38.399Z,77.44
2018-06-10T21:50:06.024Z,77.05
2018-06-10T21:52:33.550Z,76.97
2018-06-10T21:55:01.003Z,76.96
2018-06-10T21:57:28.525Z,76.86
2018-06-10T21:59:56.065Z,76.84
2018-06-10T22:02:23.645Z,77.14
2018-06-10T22:04:51.027Z,76.84
2018-06-10T22:07:18.527Z,77.48
2018-06-10T22:09:46.153Z,77.00
2018-06-10T22:12:13.560Z,76.41
2018-06-10T22:14:40.957Z,76.56
2018-06-10T22:17:08.375Z,76.52
2018-06-10T22:19:35.933Z,76.36
2018-06-10T22:22:03.745Z,76.04
2018-06-10T22:24:31.194Z,77.04
2018-06-10T22:26:58.640Z,76.08
2018-06-10T22:29:26.228Z,76.67
2018-06-10T22:31:53.645Z,77.22
2018-06-10T22:34:21.053Z,76.57
2018-06-10T22:36:48.614Z,76.51
2018-06-10T22:39:16.213Z,76.71
2018-06-10T22:41:43.906Z,76.91
2018-06-10T22:44:11.336Z,77.53
2018-06-10T22:46:38.901Z,77.32
2018-06-10T22:49:06.371Z,77.71
2018-06-10T22:51:33.985Z,78.07
2018-06-10T22:54:12.645Z,78.27
2018-06-10T22:56:40.053Z,77.35
2018-06-10T22:59:07.451Z,77.70
2018-06-10T23:01:34.913Z,77.19
2018-06-10T23:04:02.337Z,77.87
2018-06-10T23:06:29.951Z,78.15
2018-06-10T23:08:57.428Z,77.90
2018-06-10T23:11:25.550Z,77.50
2018-06-10T23:13:52.967Z,78.28
2018-06-10T23:16:20.473Z,77.11
2018-06-10T23:18:47.912Z,77.57
2018-06-10T23:21:15.482Z,77.05
2018-06-10T23:23:43.916Z,77.99
2018-06-10T23:26:11.316Z,77.36
2018-06-10T23:28:38.754Z,78.14
2018-06-10T23:31:06.314Z,77.29
2018-06-10T23:33:33.857Z,78.04
2018-06-10T23:36:01.339Z,77.60
2018-06-10T23:38:28.794Z,77.14
2018-06-10T23:40:56.224Z,77.72
2018-06-10T23:43:23.790Z,78.25
2018-06-10T23:45:51.321Z,78.14
2018-06-10T23:48:18.677Z,77.54
2018-06-10T23:50:46.228Z,77.58
2018-06-10T23:53:13.720Z,79.68
2018-06-10T23:55:41.101Z,78.85
2018-06-10T23:58:08.628Z,78.96
